Time;durP1;ratioP1;P1;durP2;ratioP2;P2;SDS_P1;SDS_P2;PMS_P1;PMS_P2;Temp;Humidity;BMP_temperature;BMP_pressure;BME280_temperature;BME280_humidity;BME280_pressure;Samples;Min_cycle;Max_cycle;Signal;HPM_P1;HPM_P2
2023/12/18 00:00:00;;;;;;;19.10;13.73;;;;;;;3.60;100.00;103255.47;5054489;28;20028;-81
2023/12/18 00:02:25;;;;;;;21.83;13.30;;;;;;;3.65;100.00;103253.72;5070620;28;20055;-81
2023/12/18 00:04:51;;;;;;;15.48;12.88;;;;;;;3.69;100.00;103247.59;5069060;28;20490;-80
2023/12/18 00:07:16;;;;;;;19.27;13.50;;;;;;;3.74;100.00;103248.44;5063117;28;20086;-81
2023/12/18 00:09:41;;;;;;;18.35;13.52;;;;;;;3.78;100.00;103250.13;5066398;28;20078;-81
2023/12/18 00:12:07;;;;;;;19.85;14.10;;;;;;;3.83;100.00;103242.28;5067964;28;20025;-80
2023/12/18 00:14:32;;;;;;;19.45;14.98;;;;;;;3.89;100.00;103255.25;5063652;28;20365;-81
2023/12/18 00:16:58;;;;;;;22.65;14.40;;;;;;;3.93;100.00;103269.13;5056214;28;20036;-81
2023/12/18 00:19:24;;;;;;;20.65;14.15;;;;;;;3.96;100.00;103251.72;5067261;28;20082;-81
2023/12/18 00:21:49;;;;;;;18.95;14.80;;;;;;;3.99;100.00;103243.03;5065504;28;20036;-81
2023/12/18 00:24:15;;;;;;;21.45;14.75;;;;;;;4.01;100.00;103236.09;5068187;28;20020;-81
2023/12/18 00:26:40;;;;;;;22.67;15.30;;;;;;;4.04;100.00;103241.28;5067330;28;20453;-81
2023/12/18 00:29:06;;;;;;;23.08;15.45;;;;;;;4.08;100.00;103240.38;5064226;28;20032;-81
2023/12/18 00:31:31;;;;;;;19.33;14.93;;;;;;;4.10;100.00;103236.00;5054960;28;20440;-81
2023/12/18 00:33:56;;;;;;;23.98;15.18;;;;;;;4.13;100.00;103235.13;5065644;28;20139;-81
2023/12/18 00:36:22;;;;;;;20.75;15.10;;;;;;;4.13;100.00;103238.59;5058445;28;20033;-81
2023/12/18 00:38:47;;;;;;;20.05;14.98;;;;;;;4.15;100.00;103231.63;5060919;28;20032;-81
2023/12/18 00:41:12;;;;;;;21.38;15.20;;;;;;;4.15;100.00;103226.41;5053912;28;20033;-81
2023/12/18 00:43:38;;;;;;;20.50;15.10;;;;;;;4.18;100.00;103228.13;5052165;28;20040;-81
2023/12/18 00:46:05;;;;;;;19.25;15.82;;;;;;;4.20;100.00;103229.84;5048488;28;20032;-81
2023/12/18 00:48:30;;;;;;;21.10;15.60;;;;;;;4.21;100.00;103233.31;5050486;28;20099;-80
2023/12/18 00:50:55;;;;;;;21.80;16.73;;;;;;;4.25;100.00;103220.22;5052082;28;20115;-81
2023/12/18 00:53:21;;;;;;;23.63;16.33;;;;;;;4.26;100.00;103227.16;5046710;28;20024;-81
2023/12/18 00:55:46;;;;;;;23.00;16.23;;;;;;;4.29;100.00;103232.34;5052675;28;20663;-81
2023/12/18 00:58:11;;;;;;;26.80;17.30;;;;;;;4.30;100.00;103233.22;5068143;28;20078;-80
2023/12/18 01:00:37;;;;;;;23.15;16.73;;;;;;;4.31;100.00;103233.19;5059158;28;20021;-80
2023/12/18 01:03:03;;;;;;;24.85;15.95;;;;;;;4.33;100.00;103241.84;5047840;28;20480;-81
2023/12/18 01:05:28;;;;;;;22.05;17.02;;;;;;;4.35;100.00;103221.00;5048639;28;20455;-81
2023/12/18 01:07:54;;;;;;;25.38;17.65;;;;;;;4.36;100.00;103222.72;5060390;28;20016;-80
2023/12/18 01:10:19;;;;;;;25.88;17.42;;;;;;;4.38;100.00;103227.03;5058321;28;20024;-81
2023/12/18 01:12:45;;;;;;;25.85;17.90;;;;;;;4.40;100.00;103220.09;5069661;28;20024;-81
2023/12/18 01:15:10;;;;;;;25.63;18.58;;;;;;;4.42;100.00;103216.63;5056804;28;20032;-80
2023/12/18 01:17:35;;;;;;;27.35;18.73;;;;;;;4.44;100.00;103212.25;5048751;28;20455;-80
2023/12/18 01:20:02;;;;;;;26.05;18.52;;;;;;;4.48;100.00;103216.53;5065668;28;20111;-81
2023/12/18 01:22:27;;;;;;;25.63;18.85;;;;;;;4.48;100.00;103211.34;5066773;28;20115;-80
2023/12/18 01:24:52;;;;;;;23.33;19.10;;;;;;;4.49;100.00;103198.28;5055333;28;20140;-80
2023/12/18 01:27:18;;;;;;;24.42;19.50;;;;;;;4.52;100.00;103198.25;5053266;28;20081;-81
2023/12/18 01:29:43;;;;;;;22.52;19.77;;;;;;;4.54;100.00;103199.09;5064203;28;20163;-81
2023/12/18 01:32:09;;;;;;;30.00;19.85;;;;;;;4.57;100.00;103208.63;5052676;28;20584;-80
2023/12/18 01:34:34;;;;;;;23.25;19.10;;;;;;;4.59;100.00;103214.69;5066427;28;20028;-81
2023/12/18 01:37:00;;;;;;;29.30;20.02;;;;;;;4.59;100.00;103212.94;5051099;28;20025;-81
2023/12/18 01:39:25;;;;;;;25.65;19.60;;;;;;;4.61;100.00;103212.91;5058912;28;20086;-81
2023/12/18 01:41:51;;;;;;;29.00;20.38;;;;;;;4.63;100.00;103211.16;5069999;28;20024;-81
2023/12/18 01:44:16;;;;;;;28.67;20.77;;;;;;;4.63;100.00;103221.59;5056458;28;20045;-81
2023/12/18 01:46:41;;;;;;;25.88;19.60;;;;;;;4.66;100.00;103216.34;5060934;28;20285;-81
2023/12/18 01:49:08;;;;;;;26.48;20.42;;;;;;;4.67;100.00;103218.91;5051697;28;20098;-81
2023/12/18 01:51:35;;;;;;;28.48;20.05;;;;;;;4.69;100.00;103216.28;5051871;28;20477;-81
2023/12/18 01:54:01;;;;;;;29.77;20.50;;;;;;;4.69;100.00;103219.75;5050974;28;20040;-81
2023/12/18 01:56:30;;;;;;;26.67;20.42;;;;;;;4.71;100.00;103219.75;5051677;28;20028;-81
2023/12/18 01:58:59;;;;;;;28.08;20.60;;;;;;;4.70;100.00;103213.66;5058641;28;20085;-81
2023/12/18 02:01:26;;;;;;;27.20;19.58;;;;;;;4.70;100.00;103218.03;5064888;28;20024;-80
2023/12/18 02:03:53;;;;;;;27.55;19.83;;;;;;;4.72;100.00;103211.03;5057159;28;20048;-81
2023/12/18 02:06:19;;;;;;;23.80;19.10;;;;;;;4.71;100.00;103207.56;5070759;28;20093;-81
2023/12/18 02:08:45;;;;;;;22.60;19.17;;;;;;;4.73;100.00;103208.41;5072326;28;20032;-81
2023/12/18 02:11:11;;;;;;;34.13;20.20;;;;;;;4.71;100.00;103194.53;5059660;28;20078;-81
2023/12/18 02:13:39;;;;;;;26.75;19.50;;;;;;;4.71;100.00;103209.31;5051816;28;20036;-81
2023/12/18 02:16:05;;;;;;;31.15;20.17;;;;;;;4.71;100.00;103206.72;5051296;28;20028;-81
2023/12/18 02:18:31;;;;;;;28.17;19.48;;;;;;;4.71;100.00;103204.09;5059376;28;20028;-81
2023/12/18 02:20:56;;;;;;;25.10;18.67;;;;;;;4.72;100.00;103205.81;5071475;28;20033;-80
2023/12/18 02:23:21;;;;;;;25.25;20.13;;;;;;;4.73;100.00;103207.56;5071256;28;20034;-81
2023/12/18 02:25:48;;;;;;;27.38;19.23;;;;;;;4.71;100.00;103189.31;5070913;28;20024;-80
2023/12/18 02:28:18;;;;;;;25.38;19.35;;;;;;;4.72;100.00;103196.25;5068919;28;20365;-80
2023/12/18 02:30:44;;;;;;;26.95;19.40;;;;;;;4.73;100.00;103197.13;5071180;28;20240;-80
2023/12/18 02:33:09;;;;;;;26.77;20.13;;;;;;;4.75;100.00;103200.56;5070737;28;20060;-81
2023/12/18 02:35:35;;;;;;;26.35;19.20;;;;;;;4.75;100.00;103189.28;5067149;28;20285;-80
2023/12/18 02:38:00;;;;;;;28.02;20.17;;;;;;;4.75;100.00;103192.75;5070823;28;20033;-80
2023/12/18 02:40:26;;;;;;;27.65;19.20;;;;;;;4.76;100.00;103197.09;5068470;28;20047;-80
2023/12/18 02:42:52;;;;;;;29.90;19.60;;;;;;;4.77;100.00;103192.72;5070347;28;20107;-80
2023/12/18 02:45:18;;;;;;;26.73;19.85;;;;;;;4.78;100.00;103187.50;5069218;28;20410;-80
2023/12/18 02:47:43;;;;;;;25.65;19.67;;;;;;;4.79;100.00;103191.81;5054809;28;20130;-80
2023/12/18 02:50:09;;;;;;;26.70;20.30;;;;;;;4.79;100.00;103189.22;5058058;28;20287;-80
2023/12/18 02:52:34;;;;;;;30.30;20.90;;;;;;;4.79;100.00;103180.53;5062641;28;20091;-81
2023/12/18 02:55:00;;;;;;;28.15;20.08;;;;;;;4.79;100.00;103193.56;5053430;28;20033;-80
2023/12/18 02:57:26;;;;;;;26.02;19.27;;;;;;;4.79;100.00;103185.75;5049971;28;20033;-80
2023/12/18 02:59:51;;;;;;;31.23;20.55;;;;;;;4.78;100.00;103173.59;5055995;28;20016;-80
2023/12/18 03:02:17;;;;;;;26.33;20.38;;;;;;;4.80;100.00;103167.47;5067043;28;20183;-81
2023/12/18 03:04:42;;;;;;;30.48;21.42;;;;;;;4.81;100.00;103164.00;5070728;28;20029;-81
2023/12/18 03:07:09;;;;;;;26.13;20.52;;;;;;;4.80;100.00;103167.47;5067830;28;20511;-81
2023/12/18 03:09:34;;;;;;;29.42;21.92;;;;;;;4.78;100.00;103161.41;5066601;28;20582;-81
2023/12/18 03:11:59;;;;;;;30.35;20.77;;;;;;;4.77;100.00;103151.00;5062441;28;20025;-81
2023/12/18 03:14:25;;;;;;;28.02;21.30;;;;;;;4.77;100.00;103151.88;5061580;28;20017;-81
2023/12/18 03:16:50;;;;;;;27.83;20.60;;;;;;;4.76;100.00;103165.78;5052226;28;20035;-81
2023/12/18 03:19:16;;;;;;;31.55;21.48;;;;;;;4.75;100.00;103158.84;5050928;28;20087;-81
2023/12/18 03:21:42;;;;;;;29.15;21.05;;;;;;;4.73;100.00;103156.25;5051281;28;20025;-81
2023/12/18 03:24:07;;;;;;;30.27;21.60;;;;;;;4.75;100.00;103164.06;5048877;28;20029;-80
2023/12/18 03:26:32;;;;;;;27.08;21.17;;;;;;;4.76;100.00;103154.50;5057856;28;20504;-80
2023/12/18 03:28:58;;;;;;;33.00;22.10;;;;;;;4.77;100.00;103161.44;5054395;28;20033;-80
2023/12/18 03:31:23;;;;;;;32.38;22.48;;;;;;;4.74;100.00;103154.50;5056548;28;20029;-80
2023/12/18 03:33:49;;;;;;;31.00;21.80;;;;;;;4.76;100.00;103157.09;5065644;28;20053;-81
2023/12/18 03:36:14;;;;;;;28.25;21.45;;;;;;;4.76;100.00;103157.97;5071088;28;20016;-81
2023/12/18 03:38:39;;;;;;;36.55;23.58;;;;;;;4.77;100.00;103157.09;5062281;28;20477;-81
2023/12/18 03:41:05;;;;;;;27.13;21.73;;;;;;;4.77;100.00;103156.22;5060987;28;20116;-80
2023/12/18 03:43:30;;;;;;;30.27;21.88;;;;;;;4.77;100.00;103157.09;5050672;28;20028;-80
2023/12/18 03:45:55;;;;;;;34.63;23.48;;;;;;;4.77;100.00;103167.50;5051755;28;20080;-81
2023/12/18 03:48:21;;;;;;;34.67;22.60;;;;;;;4.78;100.00;103156.19;5061325;28;20060;-80
2023/12/18 03:50:46;;;;;;;30.30;22.35;;;;;;;4.77;100.00;103157.09;5069029;28;20437;-80
2023/12/18 03:53:12;;;;;;;34.00;22.67;;;;;;;4.78;100.00;103160.56;5049711;28;20125;-81
2023/12/18 03:55:38;;;;;;;33.78;23.60;;;;;;;4.79;100.00;103159.66;5049213;28;20056;-81
2023/12/18 03:58:04;;;;;;;34.65;23.27;;;;;;;4.79;100.00;103167.50;5064831;28;20057;-81
2023/12/18 04:00:29;;;;;;;29.33;22.85;;;;;;;4.78;100.00;103164.03;5063021;28;20037;-81
2023/12/18 04:02:55;;;;;;;32.90;23.23;;;;;;;4.78;100.00;103166.63;5068756;28;20480;-81
2023/12/18 04:05:20;;;;;;;31.50;23.95;;;;;;;4.80;100.00;103170.09;5068382;28;20021;-81
2023/12/18 04:07:46;;;;;;;30.80;23.13;;;;;;;4.81;100.00;103169.22;5064211;28;20029;-81
2023/12/18 04:10:11;;;;;;;36.58;23.67;;;;;;;4.82;100.00;103165.75;5058110;28;20048;-81
2023/12/18 04:12:38;;;;;;;34.80;23.52;;;;;;;4.82;100.00;103160.53;5063644;28;20028;-81
2023/12/18 04:15:04;;;;;;;32.65;23.33;;;;;;;4.83;100.00;103156.16;5065025;28;20020;-80
2023/12/18 04:17:30;;;;;;;32.28;23.13;;;;;;;4.83;100.00;103156.16;5057603;28;20119;-81
2023/12/18 04:19:55;;;;;;;33.75;23.45;;;;;;;4.81;100.00;103158.78;5056156;28;20170;-81
2023/12/18 04:22:21;;;;;;;32.90;23.35;;;;;;;4.82;100.00;103150.09;5060011;28;20580;-81
2023/12/18 04:24:46;;;;;;;29.80;22.98;;;;;;;4.83;100.00;103141.38;5047758;28;20427;-80
2023/12/18 04:27:11;;;;;;;31.60;22.83;;;;;;;4.85;100.00;103143.97;5050619;28;20439;-81
2023/12/18 04:29:38;;;;;;;33.83;22.70;;;;;;;4.84;100.00;103140.50;5047890;28;20112;-81
2023/12/18 04:32:04;;;;;;;33.50;22.55;;;;;;;4.87;100.00;103142.22;5052851;28;20123;-81
2023/12/18 04:34:30;;;;;;;31.05;23.00;;;;;;;4.86;100.00;103141.34;5048059;28;20087;-80
2023/12/18 04:36:55;;;;;;;36.97;24.00;;;;;;;4.87;100.00;103143.06;5048273;28;20032;-81
2023/12/18 04:39:20;;;;;;;33.58;23.58;;;;;;;4.87;100.00;103140.47;5060960;28;20020;-81
2023/12/18 04:41:46;;;;;;;32.38;23.35;;;;;;;4.89;100.00;103130.88;5068509;28;20234;-80
2023/12/18 04:44:11;;;;;;;32.35;22.95;;;;;;;4.89;100.00;103135.22;5069634;28;20491;-81
2023/12/18 04:46:37;;;;;;;32.25;23.60;;;;;;;4.89;100.00;103141.28;5069327;28;20568;-81
2023/12/18 04:49:03;;;;;;;36.10;23.13;;;;;;;4.92;100.00;103151.69;5064031;28;20116;-81
2023/12/18 04:51:29;;;;;;;32.00;22.85;;;;;;;4.93;100.00;103139.50;5069432;28;20111;-80
2023/12/18 04:53:55;;;;;;;33.67;23.13;;;;;;;4.93;100.00;103142.97;5070280;28;20111;-80
2023/12/18 04:56:21;;;;;;;35.13;23.45;;;;;;;4.94;100.00;103133.41;5066985;28;20036;-81
2023/12/18 04:58:46;;;;;;;35.15;24.17;;;;;;;4.95;100.00;103130.78;5069587;28;20089;-80
2023/12/18 05:01:12;;;;;;;32.72;22.90;;;;;;;4.95;100.00;103125.56;5065644;28;20059;-80
2023/12/18 05:03:37;;;;;;;36.38;24.00;;;;;;;4.98;100.00;103130.72;5051349;28;20484;-80
2023/12/18 05:06:02;;;;;;;33.00;22.45;;;;;;;4.97;100.00;103135.97;5067531;28;20035;-80
2023/12/18 05:08:28;;;;;;;31.55;22.50;;;;;;;4.98;100.00;103129.88;5068612;28;20040;-81
2023/12/18 05:10:54;;;;;;;35.08;23.05;;;;;;;4.99;100.00;103134.19;5066655;28;20021;-80
2023/12/18 05:13:20;;;;;;;34.75;24.52;;;;;;;4.99;100.00;103137.69;5065730;28;20023;-80
2023/12/18 05:15:45;;;;;;;30.88;23.23;;;;;;;4.99;100.00;103135.06;5066306;28;20476;-80
2023/12/18 05:18:11;;;;;;;35.55;23.45;;;;;;;5.00;100.00;103135.94;5051770;28;20033;-81
2023/12/18 05:20:37;;;;;;;35.72;23.95;;;;;;;4.99;100.00;103122.03;5046613;28;20037;-81
2023/12/18 05:23:02;;;;;;;35.67;23.92;;;;;;;4.98;100.00;103115.06;5050397;28;20033;-81
2023/12/18 05:25:27;;;;;;;31.98;24.08;;;;;;;4.98;100.00;103115.06;5054904;28;20032;-81
2023/12/18 05:27:53;;;;;;;35.05;24.45;;;;;;;4.98;100.00;103109.84;5058917;28;20150;-81
2023/12/18 05:30:18;;;;;;;34.80;24.75;;;;;;;4.98;100.00;103119.44;5053252;28;20389;-80
2023/12/18 05:32:43;;;;;;;32.15;23.65;;;;;;;4.99;100.00;103127.25;5065005;28;20048;-81
2023/12/18 05:35:09;;;;;;;36.25;23.77;;;;;;;4.98;100.00;103125.50;5059731;28;20472;-80
2023/12/18 05:37:34;;;;;;;32.63;24.00;;;;;;;4.98;100.00;103138.56;5045950;28;20356;-81
2023/12/18 05:39:59;;;;;;;36.67;23.92;;;;;;;4.96;100.00;103142.94;5065169;28;20020;-80
2023/12/18 05:42:25;;;;;;;33.78;23.85;;;;;;;4.97;100.00;103139.44;5066994;28;20063;-80
2023/12/18 05:44:50;;;;;;;34.35;24.45;;;;;;;4.99;100.00;103142.03;5067787;28;20032;-80
2023/12/18 05:47:16;;;;;;;40.92;24.58;;;;;;;4.98;100.00;103145.53;5067838;28;20028;-80
2023/12/18 05:49:41;;;;;;;38.85;24.70;;;;;;;4.99;100.00;103145.50;5057438;28;20036;-81
2023/12/18 05:52:06;;;;;;;35.25;24.52;;;;;;;4.97;100.00;103149.00;5061732;28;20020;-80
2023/12/18 05:54:32;;;;;;;40.72;24.42;;;;;;;4.96;100.00;103148.16;5061110;28;20141;-80
2023/12/18 05:56:58;;;;;;;34.63;23.80;;;;;;;4.96;100.00;103153.38;5068945;28;20027;-80
2023/12/18 05:59:23;;;;;;;34.88;23.90;;;;;;;4.97;100.00;103143.78;5066557;28;20112;-81
2023/12/18 06:01:48;;;;;;;35.47;24.13;;;;;;;4.97;100.00;103134.22;5055425;28;20354;-81
2023/12/18 06:04:14;;;;;;;37.33;24.38;;;;;;;4.97;100.00;103129.00;5058188;28;20496;-80
2023/12/18 06:06:39;;;;;;;38.42;24.45;;;;;;;4.96;100.00;103124.69;5047823;28;20083;-81
2023/12/18 06:09:05;;;;;;;34.63;24.08;;;;;;;4.96;100.00;103132.50;5048391;28;20017;-80
2023/12/18 06:11:30;;;;;;;40.50;25.13;;;;;;;4.97;100.00;103125.53;5060447;28;20142;-80
2023/12/18 06:13:58;;;;;;;35.58;24.73;;;;;;;4.97;100.00;103134.22;5051617;28;20488;-80
2023/12/18 06:16:23;;;;;;;33.08;23.58;;;;;;;4.99;100.00;103136.81;5047426;28;20052;-80
2023/12/18 06:18:49;;;;;;;36.22;24.63;;;;;;;4.97;100.00;103144.66;5048390;28;20440;-80
2023/12/18 06:21:14;;;;;;;34.45;24.35;;;;;;;4.97;100.00;103135.97;5059946;28;20114;-81
2023/12/18 06:23:42;;;;;;;40.53;24.50;;;;;;;4.98;100.00;103138.56;5062202;28;20029;-80
2023/12/18 06:26:07;;;;;;;34.05;24.55;;;;;;;4.99;100.00;103132.47;5067715;28;20025;-80
2023/12/18 06:28:33;;;;;;;36.70;24.38;;;;;;;5.01;100.00;103132.44;5062905;28;20023;-80
2023/12/18 06:30:58;;;;;;;33.50;23.85;;;;;;;5.03;100.00;103134.13;5063923;28;20473;-80
2023/12/18 06:33:24;;;;;;;36.55;24.15;;;;;;;5.01;100.00;103135.03;5060125;28;20390;-80
2023/12/18 06:35:49;;;;;;;37.72;24.63;;;;;;;5.01;100.00;103128.06;5056613;28;20083;-80
2023/12/18 06:38:14;;;;;;;36.55;24.55;;;;;;;5.01;100.00;103130.69;5070726;28;20056;-80
2023/12/18 06:40:40;;;;;;;36.22;24.25;;;;;;;5.01;100.00;103127.22;5069803;28;20685;-80
2023/12/18 06:43:05;;;;;;;40.08;24.77;;;;;;;5.02;100.00;103126.31;5069100;28;20032;-81
2023/12/18 06:45:31;;;;;;;34.17;24.55;;;;;;;5.00;100.00;103121.13;5069543;28;20082;-80
2023/12/18 06:47:56;;;;;;;36.80;24.38;;;;;;;5.01;100.00;103122.00;5070151;28;20064;-79
2023/12/18 06:50:22;;;;;;;39.85;25.45;;;;;;;5.01;100.00;103129.81;5070096;28;20029;-82
2023/12/18 06:52:47;;;;;;;37.53;24.60;;;;;;;5.00;100.00;103136.78;5064122;28;20053;-80
2023/12/18 06:55:12;;;;;;;36.95;24.80;;;;;;;5.01;100.00;103124.59;5060228;28;20051;-80
2023/12/18 06:57:38;;;;;;;36.78;24.60;;;;;;;5.02;100.00;103131.56;5048754;28;20070;-79
2023/12/18 07:00:04;;;;;;;38.13;25.15;;;;;;;5.01;100.00;103128.06;5057280;28;20029;-80
2023/12/18 07:02:29;;;;;;;39.20;24.40;;;;;;;5.01;100.00;103128.06;5053640;28;20401;-81
2023/12/18 07:04:55;;;;;;;34.13;24.52;;;;;;;5.00;100.00;103130.72;5052105;28;20040;-81
2023/12/18 07:07:20;;;;;;;37.20;24.38;;;;;;;5.02;100.00;103131.56;5057544;28;20043;-81
2023/12/18 07:09:45;;;;;;;38.08;25.73;;;;;;;5.02;100.00;103137.63;5070796;28;20035;-81
2023/12/18 07:12:11;;;;;;;39.40;26.00;;;;;;;5.01;100.00;103129.81;5061468;28;20037;-81
2023/12/18 07:14:38;;;;;;;39.65;25.55;;;;;;;5.04;100.00;103135.84;5063057;28;20047;-81
2023/12/18 07:17:04;;;;;;;37.47;25.50;;;;;;;5.02;100.00;103137.63;5069123;28;20040;-81
2023/12/18 07:19:32;;;;;;;36.67;24.30;;;;;;;5.04;100.00;103135.84;5057905;28;20489;-81
2023/12/18 07:22:01;;;;;;;36.20;25.48;;;;;;;5.04;100.00;103146.28;5070720;28;20533;-80
2023/12/18 07:24:26;;;;;;;38.53;25.63;;;;;;;5.05;100.00;103141.94;5070385;28;20024;-81
2023/12/18 07:26:51;;;;;;;41.03;25.42;;;;;;;5.06;100.00;103146.28;5070863;28;20024;-80
2023/12/18 07:29:17;;;;;;;33.70;24.90;;;;;;;5.07;100.00;103144.53;5059658;28;20036;-81
2023/12/18 07:31:42;;;;;;;39.38;26.27;;;;;;;5.07;100.00;103149.75;5065577;28;20037;-80
2023/12/18 07:34:07;;;;;;;38.70;25.50;;;;;;;5.08;100.00;103154.06;5054740;28;20042;-81
2023/12/18 07:36:35;;;;;;;43.03;25.67;;;;;;;5.07;100.00;103149.75;5069235;28;20047;-81
2023/12/18 07:39:01;;;;;;;39.67;25.38;;;;;;;5.08;100.00;103156.69;5068032;28;20028;-80
2023/12/18 07:41:30;;;;;;;36.30;25.48;;;;;;;5.08;100.00;103149.72;5065545;28;20033;-81
2023/12/18 07:43:59;;;;;;;38.72;25.17;;;;;;;5.10;100.00;103144.47;5033952;28;20028;-81
2023/12/18 07:46:26;;;;;;;38.05;26.35;;;;;;;5.10;100.00;103149.69;5062329;28;20052;-79
2023/12/18 07:48:52;;;;;;;40.17;25.55;;;;;;;5.08;100.00;103147.13;5060469;28;20118;-80
2023/12/18 07:51:17;;;;;;;38.65;24.98;;;;;;;5.12;100.00;103147.94;5052998;28;20115;-81
2023/12/18 07:53:44;;;;;;;40.53;25.40;;;;;;;5.12;100.00;103140.97;5066745;28;20028;-81
2023/12/18 07:56:09;;;;;;;39.50;25.95;;;;;;;5.12;100.00;103137.50;5066251;28;20392;-80
2023/12/18 07:58:35;;;;;;;41.97;25.90;;;;;;;5.12;100.00;103133.13;5059371;28;20029;-80
2023/12/18 08:01:03;;;;;;;37.30;24.77;;;;;;;5.13;100.00;103131.38;5049732;28;20111;-80
2023/12/18 08:03:28;;;;;;;35.95;25.42;;;;;;;5.15;100.00;103145.28;5050112;28;20392;-80
2023/12/18 08:05:53;;;;;;;38.00;25.42;;;;;;;5.16;100.00;103134.81;5064784;28;20021;-80
2023/12/18 08:08:20;;;;;;;39.15;24.63;;;;;;;5.17;100.00;103126.09;5049455;28;20381;-80
2023/12/18 08:10:45;;;;;;;37.53;25.52;;;;;;;5.18;100.00;103126.97;5053432;28;20033;-81
2023/12/18 08:13:10;;;;;;;41.92;25.25;;;;;;;5.17;100.00;103120.00;5065471;28;20389;-81
2023/12/18 08:15:36;;;;;;;37.15;25.42;;;;;;;5.20;100.00;103117.34;5065760;28;20032;-81
2023/12/18 08:18:01;;;;;;;34.85;24.75;;;;;;;5.21;100.00;103116.50;5068639;28;20025;-81
2023/12/18 08:20:26;;;;;;;38.03;25.63;;;;;;;5.23;100.00;103114.72;5060486;28;20020;-81
2023/12/18 08:22:52;;;;;;;37.28;25.05;;;;;;;5.23;100.00;103112.97;5056330;28;20031;-81
2023/12/18 08:25:17;;;;;;;43.47;26.60;;;;;;;5.26;100.00;103114.69;5067286;28;20040;-81
2023/12/18 08:27:43;;;;;;;33.70;24.98;;;;;;;5.28;100.00;103119.00;5059495;28;20393;-81
2023/12/18 08:30:09;;;;;;;38.70;24.23;;;;;;;5.31;100.00;103115.47;5058025;28;20028;-81
2023/12/18 08:32:35;;;;;;;33.33;24.80;;;;;;;5.34;100.00;103118.88;5067658;28;20044;-80
2023/12/18 08:35:02;;;;;;;35.00;24.35;;;;;;;5.37;100.00;103112.75;5067226;28;20388;-80
2023/12/18 08:37:28;;;;;;;38.35;25.65;;;;;;;5.40;100.00;103122.28;5069093;28;20032;-80
2023/12/18 08:39:53;;;;;;;36.67;24.58;;;;;;;5.42;100.00;103115.28;5067489;28;20365;-80
2023/12/18 08:42:19;;;;;;;38.35;24.88;;;;;;;5.43;100.00;103115.25;5067439;28;20036;-80
2023/12/18 08:44:44;;;;;;;35.42;25.08;;;;;;;5.47;100.00;103114.31;5069396;28;20020;-81
2023/12/18 08:47:09;;;;;;;36.33;24.05;;;;;;;5.50;100.00;103119.50;5066389;28;20147;-81
2023/12/18 08:49:35;;;;;;;40.47;24.73;;;;;;;5.52;100.00;103111.63;5067869;28;20029;-80
2023/12/18 08:52:00;;;;;;;37.30;25.08;;;;;;;5.52;100.00;103106.41;5068207;28;20079;-82
2023/12/18 08:54:25;;;;;;;35.80;24.23;;;;;;;5.51;100.00;103116.00;5067921;28;20036;-81
2023/12/18 08:56:51;;;;;;;37.05;24.50;;;;;;;5.52;100.00;103107.28;5067426;28;20020;-80
2023/12/18 08:59:17;;;;;;;36.47;23.92;;;;;;;5.53;100.00;103106.38;5068241;28;20040;-80
2023/12/18 09:01:43;;;;;;;32.47;23.27;;;;;;;5.55;100.00;103112.44;5068381;28;20012;-80
2023/12/18 09:04:08;;;;;;;35.00;23.67;;;;;;;5.54;100.00;103110.72;5068475;28;20024;-81
2023/12/18 09:06:37;;;;;;;37.70;24.42;;;;;;;5.52;100.00;103104.66;5068506;28;20029;-81
2023/12/18 09:09:03;;;;;;;31.42;24.17;;;;;;;5.54;100.00;103102.88;5067577;28;20047;-81
2023/12/18 09:11:30;;;;;;;36.55;24.50;;;;;;;5.55;100.00;103101.13;5068711;28;20052;-81
2023/12/18 09:13:56;;;;;;;37.58;24.58;;;;;;;5.60;100.00;103105.44;5068948;28;20021;-80
2023/12/18 09:16:21;;;;;;;33.35;24.17;;;;;;;5.65;100.00;103098.38;5057831;28;20029;-80
2023/12/18 09:18:47;;;;;;;38.05;23.58;;;;;;;5.71;100.00;103096.53;5066093;28;20025;-81
2023/12/18 09:21:13;;;;;;;34.92;23.63;;;;;;;5.71;100.00;103096.53;5068959;28;20021;-80
2023/12/18 09:23:38;;;;;;;33.33;23.95;;;;;;;5.77;100.00;103096.44;5061483;28;20115;-80
2023/12/18 09:26:03;;;;;;;36.30;23.80;;;;;;;5.79;100.00;103099.88;5047405;28;20492;-80
2023/12/18 09:28:29;;;;;;;34.38;23.30;;;;;;;5.82;100.00;103105.03;5060704;28;20043;-80
2023/12/18 09:30:54;;;;;;;39.53;24.58;;;;;;;5.81;100.00;103100.72;5067127;28;20055;-80
2023/12/18 09:33:20;;;;;;;34.63;23.83;;;;;;;5.83;100.00;103109.38;5067880;28;20044;-80
2023/12/18 09:35:45;;;;;;;34.92;23.15;;;;;;;5.83;100.00;103114.59;5055518;28;20039;-80
2023/12/18 09:38:10;;;;;;;39.72;23.52;;;;;;;5.85;100.00;103112.81;5066896;28;20027;-81
2023/12/18 09:40:36;;;;;;;33.60;23.58;;;;;;;5.83;100.00;103109.38;5064847;28;20127;-81
2023/12/18 09:43:03;;;;;;;36.33;24.60;;;;;;;5.87;100.00;103108.44;5062310;28;20030;-81
2023/12/18 09:45:30;;;;;;;38.03;23.92;;;;;;;5.85;100.00;103108.44;5059224;28;20097;-81
2023/12/18 09:47:55;;;;;;;34.58;24.08;;;;;;;5.82;100.00;103107.66;5057355;28;20082;-81
2023/12/18 09:50:21;;;;;;;34.65;24.45;;;;;;;5.82;100.00;103105.03;5058517;28;20028;-80
2023/12/18 09:53:06;;;;;;;34.58;23.85;;;;;;;5.84;100.00;103113.72;5047219;28;20491;-81
2023/12/18 09:55:32;;;;;;;35.13;24.08;;;;;;;5.79;100.00;103105.97;5051403;28;20119;-81
2023/12/18 09:58:01;;;;;;;34.78;24.35;;;;;;;5.78;100.00;103098.16;5056555;28;20103;-81
2023/12/18 10:00:27;;;;;;;35.67;24.35;;;;;;;5.77;100.00;103101.66;5061014;28;20404;-81
2023/12/18 10:03:00;;;;;;;37.35;24.20;;;;;;;5.76;100.00;103095.56;5069033;28;20047;-80
2023/12/18 10:05:26;;;;;;;;;;;;;;;5.85;100.00;103100.63;5063045;28;20032;-80
2023/12/18 10:07:53;;;;;;;39.65;24.40;;;;;;;5.73;100.00;103102.59;5070546;28;19912;-80
2023/12/18 10:10:19;;;;;;;38.42;23.98;;;;;;;5.73;100.00;103092.16;5070118;28;20040;-81
2023/12/18 10:12:46;;;;;;;38.20;24.52;;;;;;;5.73;100.00;103090.41;5068379;28;20029;-81
2023/12/18 10:15:12;;;;;;;40.58;24.92;;;;;;;5.72;100.00;103103.50;5064306;28;20021;-81
2023/12/18 10:17:42;;;;;;;38.53;25.25;;;;;;;5.68;100.00;103097.47;5070973;28;20081;-81
2023/12/18 10:20:09;;;;;;;36.92;24.33;;;;;;;5.72;100.00;103093.03;5067870;28;20055;-80
2023/12/18 10:22:34;;;;;;;36.25;24.17;;;;;;;5.71;100.00;103093.94;5069544;28;20464;-81
2023/12/18 10:25:01;;;;;;;38.50;25.23;;;;;;;5.72;100.00;103093.03;5069239;28;20040;-81
2023/12/18 10:27:33;;;;;;;35.13;24.75;;;;;;;5.73;100.00;103102.59;5064594;28;20032;-81
2023/12/18 10:30:00;;;;;;;36.53;25.23;;;;;;;5.72;100.00;103091.28;5065949;28;20052;-80
2023/12/18 10:32:29;;;;;;;37.53;24.38;;;;;;;5.75;100.00;103095.59;5069024;28;20279;-81
2023/12/18 10:35:00;;;;;;;38.83;24.52;;;;;;;5.71;100.00;103093.94;5066503;28;20055;-81
2023/12/18 10:37:29;;;;;;;;;;;;;;;5.80;100.00;103091.16;5065160;28;20087;-81
2023/12/18 10:40:03;;;;;;;36.33;23.98;;;;;;;5.69;100.00;103080.03;5066014;28;20336;-81
2023/12/18 10:42:36;;;;;;;39.22;23.35;;;;;;;5.64;100.00;103078.38;5065290;28;20025;-81
2023/12/18 10:45:03;;;;;;;37.63;25.25;;;;;;;5.63;100.00;103071.44;5064946;28;20032;-80
2023/12/18 10:47:30;;;;;;;36.50;24.40;;;;;;;5.64;100.00;103072.28;5071154;28;20023;-80
2023/12/18 10:50:01;;;;;;;32.13;24.35;;;;;;;5.62;100.00;103067.09;5062186;28;20253;-80
2023/12/18 10:52:29;;;;;;;36.75;23.63;;;;;;;5.64;100.00;103060.09;5066425;28;20100;-80
2023/12/18 10:55:02;;;;;;;35.00;23.90;;;;;;;5.62;100.00;103059.25;5063472;28;20031;-80
2023/12/18 10:57:29;;;;;;;32.83;22.40;;;;;;;5.62;100.00;103061.00;5057034;28;20025;-80
2023/12/18 10:59:55;;;;;;;36.45;24.23;;;;;;;5.60;100.00;103037.53;5066430;28;21595;-80
2023/12/18 11:02:21;;;;;;;32.28;23.23;;;;;;;5.61;100.00;103033.16;5062675;28;20040;-81